Gulf Hills, Mississippi
Current Conditions -  °F | °C
As of 6:58 AM on Wednesday 22 Oct 2014 (Local Time) from KBIX Reporting Station
Clear Clear  
Wind Chill: 58°   Ceiling: Unl
Heat Index: 58°   Visibility: 10mi
Dew Point: 53°   Wind: 3mph
Humidity: 84%   Direction: 40°NE
Pressure: 30.06"   Gusts: NA
Location:  30.418°N, 88.7558°W
Report Text: KBIX 221158Z AUTO 04003KT 10SM CLR 14/12 A3006 RMK AO2 SLP182 T01430116 10167 20141 52013
Loading
Personal Weather Stations






























Interactive Weather Map
Tropical Storm Tracking
New forecast layout! Learn more

10-Day Weather Forecast

Advertisements
Track Severe Weather on mobile